Time;durP1;ratioP1;P1;durP2;ratioP2;P2;SDS_P1;SDS_P2;PMS_P1;PMS_P2;Temp;Humidity;BMP_temperature;BMP_pressure;BME280_temperature;BME280_humidity;BME280_pressure;Samples;Min_cycle;Max_cycle;Signal;HPM_P1;HPM_P2
2023/06/16 00:02:03;;;;;;;10.48;9.35;;;17.50;99.90;;;;;;5065351;28;20040;-66
2023/06/16 00:04:28;;;;;;;11.45;9.88;;;17.50;99.90;;;;;;5035772;28;20470;-65
2023/06/16 00:06:56;;;;;;;14.02;10.13;;;17.40;99.90;;;;;;5036736;28;20090;-65
2023/06/16 00:09:22;;;;;;;12.05;9.73;;;17.30;99.90;;;;;;5039499;28;20459;-65
2023/06/16 00:11:48;;;;;;;11.23;9.80;;;17.20;99.90;;;;;;5029686;28;20159;-65
2023/06/16 00:14:14;;;;;;;11.15;10.00;;;17.20;99.90;;;;;;5051329;28;20084;-65
2023/06/16 00:16:40;;;;;;;11.38;10.00;;;17.20;99.90;;;;;;5056239;28;20123;-65
2023/06/16 00:19:06;;;;;;;11.15;9.95;;;17.20;99.90;;;;;;5046628;28;20049;-65
2023/06/16 00:21:37;;;;;;;10.02;8.80;;;17.20;99.90;;;;;;5056313;28;20041;-65
2023/06/16 00:24:07;;;;;;;12.27;9.40;;;17.20;99.90;;;;;;5056220;28;20076;-67
2023/06/16 00:26:34;;;;;;;10.57;8.55;;;17.20;99.90;;;;;;5074052;28;20135;-65
2023/06/16 00:29:01;;;;;;;11.48;9.23;;;17.30;99.90;;;;;;5067699;28;20516;-66
2023/06/16 00:31:26;;;;;;;9.95;8.93;;;17.30;99.90;;;;;;5024387;28;20123;-66
2023/06/16 00:33:53;;;;;;;10.35;8.57;;;17.20;99.90;;;;;;5056497;28;20127;-66
2023/06/16 00:36:19;;;;;;;14.73;8.77;;;17.30;99.90;;;;;;5043544;28;20064;-66
2023/06/16 00:38:45;;;;;;;11.18;9.10;;;17.20;99.90;;;;;;5055111;28;20032;-66
2023/06/16 00:41:11;;;;;;;10.30;8.55;;;17.20;99.90;;;;;;5045812;28;20126;-65
2023/06/16 00:43:37;;;;;;;10.13;8.68;;;17.20;99.90;;;;;;5036160;28;20044;-67
2023/06/16 00:46:02;;;;;;;10.75;8.27;;;17.20;99.90;;;;;;5066512;28;20095;-65
2023/06/16 00:48:28;;;;;;;12.80;8.55;;;17.20;99.90;;;;;;5049158;28;20115;-66
2023/06/16 00:50:55;;;;;;;10.20;8.82;;;17.20;99.90;;;;;;5068780;28;20052;-65
2023/06/16 00:53:21;;;;;;;11.10;8.73;;;17.20;99.90;;;;;;5074034;28;20048;-65
2023/06/16 00:55:48;;;;;;;9.90;8.23;;;17.20;99.90;;;;;;5058493;28;20119;-65
2023/06/16 00:58:17;;;;;;;10.75;8.00;;;17.20;99.90;;;;;;5052586;28;20056;-65
2023/06/16 01:00:43;;;;;;;9.05;8.05;;;17.10;99.90;;;;;;5068533;28;20086;-65
2023/06/16 01:03:09;;;;;;;9.70;8.40;;;17.10;99.90;;;;;;5056254;28;20105;-65
2023/06/16 01:05:36;;;;;;;10.98;7.88;;;17.10;99.90;;;;;;5071510;28;20556;-65
2023/06/16 01:08:14;;;;;;;8.75;7.88;;;17.20;99.90;;;;;;5065991;28;20455;-65
2023/06/16 01:11:06;;;;;;;8.98;8.05;;;17.20;99.90;;;;;;5033829;28;20044;-65
2023/06/16 01:14:06;;;;;;;9.85;7.90;;;17.10;99.90;;;;;;5064301;28;20048;-65
2023/06/16 01:16:35;;;;;;;9.75;8.85;;;17.10;99.90;;;;;;5055244;28;20170;-65
2023/06/16 01:19:08;;;;;;;10.90;9.25;;;17.10;99.90;;;;;;5051287;28;20060;-65
2023/06/16 01:21:43;;;;;;;9.63;8.73;;;17.00;99.90;;;;;;5069064;28;20070;-65
2023/06/16 01:24:23;;;;;;;10.20;8.98;;;16.90;99.90;;;;;;5038250;28;20067;-65
2023/06/16 01:26:53;;;;;;;10.57;9.48;;;16.80;99.90;;;;;;5054517;28;20036;-66
2023/06/16 01:29:23;;;;;;;9.95;8.88;;;16.80;99.90;;;;;;5060133;28;20159;-66
2023/06/16 01:31:52;;;;;;;11.30;9.65;;;16.70;99.90;;;;;;5054195;28;20048;-65
2023/06/16 01:34:20;;;;;;;10.38;9.07;;;16.70;99.90;;;;;;5020566;28;20083;-66
2023/06/16 01:36:46;;;;;;;10.02;8.93;;;16.70;99.90;;;;;;5053235;28;20045;-65
2023/06/16 01:39:15;;;;;;;10.70;9.02;;;16.70;99.90;;;;;;5052421;28;20558;-66
2023/06/16 01:41:42;;;;;;;12.63;9.57;;;16.80;99.90;;;;;;5054556;28;20052;-65
2023/06/16 01:44:08;;;;;;;10.50;9.40;;;16.60;99.90;;;;;;5049451;28;20312;-65
2023/06/16 01:46:35;;;;;;;12.40;9.63;;;16.60;99.90;;;;;;5064590;28;20040;-71
2023/06/16 01:49:01;;;;;;;14.68;10.23;;;16.60;99.90;;;;;;5071625;28;20057;-65
2023/06/16 01:51:27;;;;;;;11.48;8.95;;;16.60;99.90;;;;;;5072882;28;20044;-65
2023/06/16 01:53:53;;;;;;;12.23;9.93;;;16.60;99.90;;;;;;5063502;28;20036;-65
2023/06/16 01:56:19;;;;;;;10.90;9.80;;;16.50;99.90;;;;;;5027577;28;20076;-65
2023/06/16 01:58:45;;;;;;;10.95;9.70;;;16.50;99.90;;;;;;5071913;28;20040;-65
2023/06/16 02:01:18;;;;;;;11.90;10.32;;;16.50;99.90;;;;;;5059278;28;20554;-65
2023/06/16 02:03:58;;;;;;;11.15;10.00;;;16.50;99.90;;;;;;5072014;28;20481;-65
2023/06/16 02:06:37;;;;;;;11.80;9.93;;;16.50;99.90;;;;;;5053353;28;20049;-65
2023/06/16 02:09:05;;;;;;;11.32;10.13;;;16.40;99.90;;;;;;5052503;28;20053;-66
2023/06/16 02:11:32;;;;;;;10.80;9.70;;;16.40;99.90;;;;;;5053422;28;20037;-65
2023/06/16 02:13:59;;;;;;;12.38;11.00;;;16.30;99.90;;;;;;5045254;28;20069;-65
2023/06/16 02:16:25;;;;;;;12.80;10.68;;;16.30;99.90;;;;;;5051790;28;20557;-65
2023/06/16 02:18:53;;;;;;;11.95;10.75;;;16.20;99.90;;;;;;5051303;28;20053;-65
2023/06/16 02:21:20;;;;;;;12.65;11.35;;;16.20;99.90;;;;;;5051373;28;20053;-66
2023/06/16 02:23:46;;;;;;;12.50;11.15;;;16.20;99.90;;;;;;5033871;28;20084;-65
2023/06/16 02:26:11;;;;;;;13.60;11.88;;;16.10;99.90;;;;;;5051706;28;20091;-65
2023/06/16 02:28:37;;;;;;;14.30;11.57;;;16.10;99.90;;;;;;5034257;28;20044;-65
2023/06/16 02:31:03;;;;;;;13.68;10.68;;;16.10;99.90;;;;;;5034655;28;20073;-65
2023/06/16 02:33:28;;;;;;;13.63;11.02;;;16.00;99.90;;;;;;5052645;28;20041;-64
2023/06/16 02:35:54;;;;;;;12.52;11.15;;;16.00;99.90;;;;;;5053662;28;20040;-65
2023/06/16 02:38:20;;;;;;;11.65;10.50;;;15.90;99.90;;;;;;5071312;28;20055;-65
2023/06/16 02:40:45;;;;;;;13.75;12.32;;;15.90;99.90;;;;;;5071290;28;20383;-65
2023/06/16 02:43:11;;;;;;;13.40;12.07;;;15.90;99.90;;;;;;5061945;28;20045;-65
2023/06/16 02:45:39;;;;;;;13.77;12.13;;;16.00;99.90;;;;;;5058868;28;20044;-64
2023/06/16 02:48:05;;;;;;;14.32;12.73;;;15.90;99.90;;;;;;5036697;28;20521;-65
2023/06/16 02:50:31;;;;;;;15.40;13.43;;;16.00;99.90;;;;;;5071075;28;20159;-65
2023/06/16 02:52:58;;;;;;;13.77;12.48;;;15.90;99.90;;;;;;5070744;28;20052;-65
2023/06/16 02:55:24;;;;;;;14.73;13.23;;;15.90;99.90;;;;;;5067904;28;20040;-65
2023/06/16 02:57:50;;;;;;;14.50;13.05;;;15.80;99.90;;;;;;5063101;28;20063;-65
2023/06/16 03:00:16;;;;;;;14.25;12.85;;;15.80;99.90;;;;;;5036769;28;20498;-65
2023/06/16 03:02:42;;;;;;;18.17;13.82;;;15.80;99.90;;;;;;5070691;28;20055;-65
2023/06/16 03:05:07;;;;;;;17.10;15.30;;;15.80;99.90;;;;;;5070884;28;20052;-65
2023/06/16 03:07:35;;;;;;;15.85;14.25;;;15.90;99.90;;;;;;5033986;28;20132;-65
2023/06/16 03:10:01;;;;;;;17.13;15.43;;;15.80;99.90;;;;;;5044549;28;20140;-65
2023/06/16 03:12:27;;;;;;;18.67;16.67;;;15.80;99.90;;;;;;5053385;28;20080;-67
2023/06/16 03:14:53;;;;;;;18.35;16.55;;;15.80;99.90;;;;;;5070364;28;20122;-65
2023/06/16 03:17:21;;;;;;;20.25;16.80;;;15.80;99.90;;;;;;5053615;28;20404;-65
2023/06/16 03:19:48;;;;;;;19.67;17.67;;;15.70;99.90;;;;;;5053573;28;20113;-65
2023/06/16 03:22:14;;;;;;;18.25;16.35;;;15.70;99.90;;;;;;5033982;28;20045;-66
2023/06/16 03:24:41;;;;;;;20.70;18.50;;;15.70;99.90;;;;;;5067333;28;20047;-66
2023/06/16 03:27:08;;;;;;;19.15;17.35;;;15.70;99.90;;;;;;5070641;28;20137;-65
2023/06/16 03:29:34;;;;;;;19.30;17.33;;;15.70;99.90;;;;;;5071211;28;20114;-65
2023/06/16 03:32:00;;;;;;;19.52;17.42;;;15.70;99.90;;;;;;5052752;28;20114;-65
2023/06/16 03:34:29;;;;;;;19.77;17.77;;;15.80;99.90;;;;;;5054463;28;20045;-65
2023/06/16 03:36:55;;;;;;;20.25;16.80;;;15.80;99.90;;;;;;5069977;28;20042;-66
2023/06/16 03:39:21;;;;;;;19.73;17.63;;;15.80;99.90;;;;;;5071293;28;20052;-65
2023/06/16 03:41:47;;;;;;;20.90;18.48;;;15.80;99.90;;;;;;5071094;28;20048;-65
2023/06/16 03:44:12;;;;;;;21.67;19.38;;;15.80;99.90;;;;;;5068278;28;20073;-66
2023/06/16 03:46:38;;;;;;;20.80;18.70;;;15.80;99.90;;;;;;5052752;28;20114;-65
2023/06/16 03:49:04;;;;;;;21.17;18.98;;;15.90;99.90;;;;;;5070971;28;20055;-65
2023/06/16 03:51:30;;;;;;;21.23;18.75;;;15.90;99.90;;;;;;5057007;28;20075;-65
2023/06/16 03:53:58;;;;;;;20.88;18.73;;;15.90;99.90;;;;;;5039990;28;20043;-70
2023/06/16 03:56:23;;;;;;;21.02;18.80;;;15.90;99.90;;;;;;5069594;28;20493;-65
2023/06/16 03:58:49;;;;;;;19.70;17.30;;;15.90;99.90;;;;;;5049881;28;20107;-65
2023/06/16 04:01:15;;;;;;;20.48;18.45;;;15.90;99.90;;;;;;5056178;28;20351;-65
2023/06/16 04:03:41;;;;;;;21.08;18.02;;;16.00;99.90;;;;;;5074485;28;20051;-66
2023/06/16 04:06:07;;;;;;;20.20;18.02;;;16.00;99.90;;;;;;5039211;28;20052;-65
2023/06/16 04:08:33;;;;;;;19.60;17.60;;;16.00;99.90;;;;;;5073103;28;20060;-65
2023/06/16 04:10:58;;;;;;;20.38;18.25;;;16.00;99.90;;;;;;5049085;28;20064;-72
2023/06/16 04:13:25;;;;;;;21.45;18.70;;;16.00;99.90;;;;;;5048267;28;20048;-65
2023/06/16 04:15:51;;;;;;;21.77;19.48;;;16.10;99.90;;;;;;5073264;28;20573;-65
2023/06/16 04:18:17;;;;;;;22.17;19.98;;;16.10;99.90;;;;;;5074052;28;20044;-65
2023/06/16 04:20:42;;;;;;;23.40;20.90;;;16.20;99.90;;;;;;5073994;28;20116;-65
2023/06/16 04:23:09;;;;;;;25.77;22.17;;;16.20;99.90;;;;;;5050198;28;20041;-65
2023/06/16 04:25:38;;;;;;;25.40;22.67;;;16.20;99.90;;;;;;5067461;28;20119;-66
2023/06/16 04:28:05;;;;;;;26.77;24.17;;;16.30;99.90;;;;;;5061767;28;20048;-66
2023/06/16 04:30:33;;;;;;;27.95;25.05;;;16.30;99.90;;;;;;5056462;28;20127;-64
2023/06/16 04:33:01;;;;;;;30.67;27.25;;;16.30;99.90;;;;;;5073513;28;20110;-65
2023/06/16 04:35:29;;;;;;;30.20;27.20;;;16.30;99.90;;;;;;5068355;28;20056;-64
2023/06/16 04:37:57;;;;;;;29.52;26.42;;;16.40;99.90;;;;;;5049808;28;20093;-64
2023/06/16 04:40:25;;;;;;;30.65;27.58;;;16.30;99.90;;;;;;5055759;28;20111;-64
2023/06/16 04:42:51;;;;;;;31.15;27.77;;;16.40;99.90;;;;;;5056371;28;20398;-66
2023/06/16 04:45:18;;;;;;;30.58;27.13;;;16.50;99.90;;;;;;5073290;28;20032;-64
2023/06/16 04:47:44;;;;;;;31.67;28.20;;;16.60;99.90;;;;;;5067222;28;20033;-67
2023/06/16 04:50:10;;;;;;;30.30;27.10;;;16.80;99.90;;;;;;5051370;28;20367;-66
2023/06/16 04:52:37;;;;;;;29.52;26.63;;;17.00;99.90;;;;;;5056279;28;20048;-66
2023/06/16 04:55:06;;;;;;;30.40;23.90;;;17.30;99.90;;;;;;5073819;28;20075;-66
2023/06/16 04:57:33;;;;;;;26.60;22.30;;;18.00;99.90;;;;;;5055611;28;20060;-65
2023/06/16 05:00:00;;;;;;;23.60;21.20;;;18.70;99.90;;;;;;5055633;28;20144;-65
2023/06/16 05:02:26;;;;;;;26.38;21.13;;;19.50;99.90;;;;;;5041191;28;20052;-64
2023/06/16 05:04:52;;;;;;;23.48;20.55;;;20.20;99.90;;;;;;5073655;28;20044;-65
2023/06/16 05:07:18;;;;;;;21.50;19.40;;;20.80;99.90;;;;;;5054615;28;20056;-65
2023/06/16 05:09:45;;;;;;;21.13;19.02;;;21.40;99.90;;;;;;5032602;28;20094;-65
2023/06/16 05:12:11;;;;;;;21.80;18.92;;;21.90;99.90;;;;;;5072751;28;20445;-65
2023/06/16 05:14:37;;;;;;;20.35;18.33;;;22.30;99.90;;;;;;5066179;28;20044;-65
2023/06/16 05:17:02;;;;;;;19.10;17.20;;;22.70;99.90;;;;;;5034604;28;20129;-65
2023/06/16 05:19:30;;;;;;;19.50;16.02;;;23.10;99.90;;;;;;5063605;28;20127;-65
2023/06/16 05:21:55;;;;;;;17.50;15.77;;;23.50;99.90;;;;;;5066291;28;20111;-65
2023/06/16 05:24:21;;;;;;;18.63;16.08;;;23.80;99.50;;;;;;5040000;28;20053;-65
2023/06/16 05:26:47;;;;;;;17.80;16.10;;;24.10;98.90;;;;;;5034746;28;20059;-66
2023/06/16 05:29:12;;;;;;;17.63;14.73;;;24.30;98.30;;;;;;5053820;28;20063;-70
2023/06/16 05:31:38;;;;;;;17.90;15.40;;;24.60;97.80;;;;;;5053341;28;20053;-65
2023/06/16 05:34:04;;;;;;;16.65;14.95;;;24.90;97.30;;;;;;5053242;28;20378;-67
2023/06/16 05:36:31;;;;;;;16.83;15.13;;;25.20;96.70;;;;;;5034778;28;20080;-65
2023/06/16 05:38:56;;;;;;;16.40;14.57;;;25.30;96.10;;;;;;5035104;28;20510;-66
2023/06/16 05:41:24;;;;;;;17.20;14.32;;;25.40;95.90;;;;;;5035655;28;20079;-65
2023/06/16 05:43:57;;;;;;;15.40;13.85;;;25.60;95.70;;;;;;4894416;28;48190;-65
2023/06/16 05:46:23;;;;;;;15.23;13.45;;;25.80;95.10;;;;;;5027879;28;20116;-66
2023/06/16 05:48:48;;;;;;;15.75;13.35;;;26.00;95.30;;;;;;5036875;28;20095;-66
2023/06/16 05:51:15;;;;;;;13.13;11.82;;;26.10;95.10;;;;;;5037008;28;20041;-70
2023/06/16 05:53:41;;;;;;;15.70;13.48;;;26.10;95.00;;;;;;5052237;28;20067;-66
2023/06/16 05:56:07;;;;;;;14.77;13.18;;;26.10;94.80;;;;;;5052743;28;20483;-66
2023/06/16 05:58:36;;;;;;;14.68;12.20;;;26.20;94.70;;;;;;5030650;28;20049;-66
2023/06/16 06:01:03;;;;;;;14.45;11.25;;;26.10;94.50;;;;;;5039617;28;20079;-66
2023/06/16 06:03:29;;;;;;;13.23;10.88;;;26.30;94.60;;;;;;5037680;28;20076;-66
2023/06/16 06:05:56;;;;;;;10.27;9.23;;;26.40;94.60;;;;;;5034867;28;20075;-65
2023/06/16 06:08:26;;;;;;;10.07;8.93;;;26.80;94.30;;;;;;5051340;28;20143;-66
2023/06/16 06:10:52;;;;;;;11.57;9.00;;;26.70;93.90;;;;;;5051980;28;20057;-64
2023/06/16 06:13:18;;;;;;;13.43;8.48;;;27.00;93.90;;;;;;5018197;28;20128;-70
2023/06/16 06:15:44;;;;;;;9.90;8.25;;;27.00;93.60;;;;;;5035641;28;20135;-65
2023/06/16 06:18:10;;;;;;;9.50;7.72;;;27.30;93.50;;;;;;5051919;28;20106;-65
2023/06/16 06:20:38;;;;;;;8.57;7.35;;;27.30;93.20;;;;;;5051397;28;20040;-64
2023/06/16 06:23:04;;;;;;;9.90;6.75;;;27.60;93.10;;;;;;5053658;28;20183;-66
2023/06/16 06:25:30;;;;;;;11.10;7.13;;;27.80;92.60;;;;;;5051306;28;20541;-65
2023/06/16 06:27:56;;;;;;;9.85;6.88;;;28.00;92.20;;;;;;5017109;28;20037;-65
2023/06/16 06:30:24;;;;;;;7.20;6.50;;;28.10;91.70;;;;;;5042711;28;20111;-71
2023/06/16 06:32:50;;;;;;;10.88;6.22;;;28.30;90.90;;;;;;5065456;28;20052;-65
2023/06/16 06:35:16;;;;;;;9.15;6.03;;;28.40;91.20;;;;;;5054005;28;20063;-65
2023/06/16 06:37:42;;;;;;;10.52;6.47;;;28.60;90.90;;;;;;5046652;28;20041;-64
2023/06/16 06:40:08;;;;;;;6.38;5.53;;;28.80;90.80;;;;;;5057217;28;20402;-64
2023/06/16 06:42:34;;;;;;;6.70;5.60;;;29.20;90.60;;;;;;5065383;28;20144;-65
2023/06/16 06:45:01;;;;;;;8.65;6.20;;;29.50;90.30;;;;;;5026668;28;20123;-64
2023/06/16 06:47:27;;;;;;;6.47;5.50;;;29.90;89.20;;;;;;5051074;28;20063;-66
2023/06/16 06:49:54;;;;;;;22.20;6.75;;;30.10;88.50;;;;;;5050999;28;20072;-68
2023/06/16 06:52:20;;;;;;;6.57;5.22;;;30.30;88.30;;;;;;5034008;28;20044;-67
2023/06/16 06:54:45;;;;;;;7.63;5.47;;;30.30;87.70;;;;;;5033654;28;20118;-66
2023/06/16 06:57:12;;;;;;;6.75;5.10;;;30.10;87.10;;;;;;5051742;28;20040;-65
2023/06/16 06:59:40;;;;;;;7.22;4.82;;;30.30;87.00;;;;;;5051238;28;20064;-65
2023/06/16 07:02:06;;;;;;;7.15;5.35;;;30.50;86.00;;;;;;5033301;28;20056;-66
2023/06/16 07:04:33;;;;;;;6.35;4.70;;;30.30;84.80;;;;;;5050838;28;20410;-66
2023/06/16 07:07:00;;;;;;;6.15;4.55;;;30.30;86.10;;;;;;5035904;28;20125;-66
2023/06/16 07:09:25;;;;;;;6.38;4.72;;;30.70;86.20;;;;;;5041386;28;20521;-66
2023/06/16 07:11:51;;;;;;;6.25;4.15;;;31.20;84.40;;;;;;5050159;28;20081;-66
2023/06/16 07:14:17;;;;;;;6.60;4.63;;;31.30;84.10;;;;;;5039419;28;20033;-66
2023/06/16 07:16:43;;;;;;;6.53;4.63;;;31.20;84.40;;;;;;5050580;28;20052;-66
2023/06/16 07:19:08;;;;;;;7.03;5.07;;;31.40;84.30;;;;;;5033842;28;20052;-66
2023/06/16 07:21:34;;;;;;;5.82;4.47;;;31.50;84.00;;;;;;5050988;28;20041;-66
2023/06/16 07:24:00;;;;;;;6.15;4.45;;;31.50;83.10;;;;;;5035613;28;20049;-66
2023/06/16 07:26:25;;;;;;;6.80;4.75;;;31.40;83.00;;;;;;5037622;28;20048;-66
2023/06/16 07:28:51;;;;;;;5.53;4.40;;;31.50;83.30;;;;;;5036144;28;20110;-66
2023/06/16 07:31:17;;;;;;;5.75;4.45;;;31.80;83.40;;;;;;5037882;28;20431;-67
2023/06/16 07:33:42;;;;;;;5.38;4.50;;;32.00;83.00;;;;;;5074971;28;20098;-66
2023/06/16 07:36:08;;;;;;;5.50;4.38;;;32.20;82.70;;;;;;5057833;28;20072;-66
2023/06/16 07:38:34;;;;;;;6.90;4.60;;;32.10;82.40;;;;;;5040355;28;20068;-67
2023/06/16 07:41:02;;;;;;;5.53;3.72;;;32.20;81.00;;;;;;5030819;28;20052;-66
2023/06/16 07:43:28;;;;;;;6.95;4.25;;;32.30;81.20;;;;;;5026973;28;20048;-66
2023/06/16 07:45:53;;;;;;;6.53;4.00;;;31.90;81.00;;;;;;5036581;28;20033;-66
2023/06/16 07:48:19;;;;;;;5.28;4.05;;;31.50;81.90;;;;;;5055104;28;20044;-66
2023/06/16 07:50:45;;;;;;;6.20;4.05;;;31.60;81.60;;;;;;5056919;28;20475;-67
2023/06/16 07:53:11;;;;;;;6.85;3.95;;;31.70;80.00;;;;;;5054576;28;20132;-67
2023/06/16 07:55:36;;;;;;;6.10;3.60;;;31.60;78.70;;;;;;5037343;28;20399;-70
2023/06/16 07:58:02;;;;;;;5.68;3.60;;;31.80;78.10;;;;;;5021104;28;20057;-67
2023/06/16 08:00:28;;;;;;;6.68;3.38;;;31.90;76.40;;;;;;5038267;28;20110;-67
2023/06/16 08:02:53;;;;;;;6.18;2.78;;;31.60;72.80;;;;;;5053904;28;20075;-68
2023/06/16 08:05:20;;;;;;;4.10;2.72;;;31.60;73.30;;;;;;5054540;28;20068;-67
2023/06/16 08:07:46;;;;;;;5.35;2.83;;;31.60;71.90;;;;;;5054718;28;20438;-67
2023/06/16 08:10:19;;;;;;;4.15;2.80;;;31.80;72.90;;;;;;5056681;28;20083;-66
2023/06/16 08:12:45;;;;;;;6.72;2.72;;;32.10;71.60;;;;;;5036045;28;20119;-67
2023/06/16 08:15:11;;;;;;;4.53;2.78;;;32.20;69.90;;;;;;5020627;28;20123;-67
2023/06/16 08:17:37;;;;;;;6.32;2.42;;;32.20;70.40;;;;;;5059570;28;20112;-71
2023/06/16 08:20:07;;;;;;;5.57;2.60;;;32.30;69.60;;;;;;5054310;28;20570;-67
2023/06/16 08:22:33;;;;;;;3.70;2.28;;;32.40;69.30;;;;;;5054211;28;20047;-67
2023/06/16 08:24:59;;;;;;;6.75;2.60;;;32.60;67.40;;;;;;5053503;28;20127;-66
2023/06/16 08:27:25;;;;;;;3.55;2.20;;;32.90;66.60;;;;;;5034339;28;20045;-69
2023/06/16 08:29:51;;;;;;;6.03;2.15;;;33.00;64.90;;;;;;5051353;28;20057;-70
2023/06/16 08:32:16;;;;;;;3.03;2.28;;;32.80;65.70;;;;;;5055563;28;20049;-67
2023/06/16 08:34:42;;;;;;;5.82;2.10;;;32.70;65.20;;;;;;5052829;28;20494;-71
2023/06/16 08:37:08;;;;;;;4.30;2.25;;;32.60;64.80;;;;;;5053938;28;20041;-68
2023/06/16 08:39:34;;;;;;;4.28;2.47;;;32.50;65.70;;;;;;5041329;28;20052;-68
2023/06/16 08:42:00;;;;;;;3.65;2.22;;;32.30;66.80;;;;;;5034688;28;20387;-68
2023/06/16 08:44:28;;;;;;;4.63;2.10;;;32.20;68.00;;;;;;5001101;28;37788;-67
2023/06/16 08:46:54;;;;;;;4.00;2.05;;;32.40;66.90;;;;;;4971182;28;20064;-68
2023/06/16 08:49:20;;;;;;;4.13;2.20;;;32.50;67.30;;;;;;5054903;28;20399;-68
2023/06/16 08:51:49;;;;;;;4.65;2.45;;;32.50;68.00;;;;;;5053898;28;20056;-70
2023/06/16 08:54:18;;;;;;;5.05;2.55;;;32.90;69.20;;;;;;5054274;28;20053;-68
2023/06/16 08:56:44;;;;;;;3.30;2.38;;;33.10;69.00;;;;;;5052917;28;20064;-68
2023/06/16 08:59:12;;;;;;;4.85;2.65;;;33.30;68.60;;;;;;5053441;28;20128;-70
2023/06/16 09:01:40;;;;;;;5.07;2.47;;;33.10;68.10;;;;;;5046821;28;20490;-68
2023/06/16 09:04:09;;;;;;;5.03;2.30;;;33.40;69.10;;;;;;5035645;28;20060;-67
2023/06/16 09:06:47;;;;;;;4.38;2.30;;;33.10;68.90;;;;;;5044086;28;20044;-68
2023/06/16 09:09:14;;;;;;;2.85;2.13;;;33.10;68.00;;;;;;5073089;28;20059;-68
2023/06/16 09:11:40;;;;;;;4.88;2.05;;;33.00;67.90;;;;;;5045466;28;20107;-67
2023/06/16 09:14:14;;;;;;;4.47;2.63;;;33.20;67.20;;;;;;5053681;28;20482;-68
2023/06/16 09:16:40;;;;;;;4.28;2.25;;;33.20;67.10;;;;;;4932009;28;21853;-68
2023/06/16 09:19:09;;;;;;;5.18;2.40;;;33.00;67.50;;;;;;5035100;28;20083;-68
2023/06/16 09:21:37;;;;;;;4.68;2.22;;;32.90;67.40;;;;;;5039139;28;20040;-67
2023/06/16 09:24:04;;;;;;;5.15;2.35;;;32.70;67.90;;;;;;5052578;28;20083;-69
2023/06/16 09:26:35;;;;;;;5.35;2.30;;;32.70;67.30;;;;;;5053563;28;20049;-68
2023/06/16 09:29:02;;;;;;;3.75;2.30;;;32.40;67.20;;;;;;5035236;28;20050;-68
2023/06/16 09:31:28;;;;;;;4.53;2.42;;;31.90;67.60;;;;;;5064276;28;20057;-68
2023/06/16 09:34:05;;;;;;;6.05;2.30;;;32.10;69.10;;;;;;5060573;28;20053;-68
2023/06/16 09:36:31;;;;;;;5.35;2.28;;;32.30;69.00;;;;;;5073359;28;20502;-68
2023/06/16 09:38:57;;;;;;;5.22;2.40;;;32.40;69.20;;;;;;5066892;28;20395;-68
2023/06/16 09:41:23;;;;;;;3.63;2.38;;;32.40;68.20;;;;;;5054777;28;20045;-66
2023/06/16 09:43:50;;;;;;;4.72;2.50;;;32.30;68.50;;;;;;5052109;28;20403;-70
2023/06/16 09:46:16;;;;;;;4.35;2.10;;;32.50;67.80;;;;;;5034218;28;20060;-69
2023/06/16 09:48:49;;;;;;;6.20;2.47;;;32.40;68.40;;;;;;5029087;28;20041;-71
2023/06/16 09:51:20;;;;;;;5.32;2.15;;;32.30;66.60;;;;;;5034689;28;20313;-71
2023/06/16 09:53:46;;;;;;;3.15;2.10;;;31.70;66.70;;;;;;5034960;28;20055;-72
2023/06/16 09:56:16;;;;;;;5.53;2.28;;;31.60;66.90;;;;;;5034324;28;20045;-71
2023/06/16 09:58:43;;;;;;;4.05;2.30;;;31.10;67.20;;;;;;5034693;28;20047;-72
2023/06/16 10:01:10;;;;;;;3.70;2.03;;;30.70;67.30;;;;;;5051716;28;20071;-72
2023/06/16 10:03:39;;;;;;;9.13;2.40;;;30.40;67.80;;;;;;5012583;28;20056;-71
2023/06/16 10:06:13;;;;;;;7.60;2.75;;;30.20;67.90;;;;;;5034233;28;20049;-71
2023/06/16 10:08:40;;;;;;;4.68;2.30;;;30.40;69.50;;;;;;5052321;28;20044;-70
2023/06/16 10:11:09;;;;;;;5.03;2.47;;;30.80;68.80;;;;;;5017076;28;20057;-70
2023/06/16 10:13:38;;;;;;;3.33;2.20;;;30.20;68.10;;;;;;5051169;28;20443;-70
2023/06/16 10:16:09;;;;;;;3.83;2.55;;;30.10;69.00;;;;;;5050244;28;20098;-70
2023/06/16 10:18:35;;;;;;;5.90;2.30;;;30.30;69.00;;;;;;5034690;28;20449;-69
2023/06/16 10:21:03;;;;;;;5.18;2.47;;;30.20;69.90;;;;;;4984521;28;20045;-69
2023/06/16 10:23:30;;;;;;;4.45;2.22;;;30.60;69.00;;;;;;5018235;28;20053;-70
2023/06/16 10:25:56;;;;;;;7.07;2.60;;;30.20;68.80;;;;;;5017636;28;20128;-69
2023/06/16 10:28:22;;;;;;;6.40;2.67;;;29.90;68.80;;;;;;5034144;28;20452;-69
2023/06/16 10:30:49;;;;;;;5.22;2.67;;;29.40;69.20;;;;;;5034261;28;20056;-69
2023/06/16 10:33:17;;;;;;;6.30;2.85;;;29.10;69.60;;;;;;5043340;28;20148;-69
2023/06/16 10:35:54;;;;;;;6.95;2.58;;;29.00;70.00;;;;;;5044859;28;20389;-71
2023/06/16 10:38:36;;;;;;;5.13;2.67;;;28.90;69.00;;;;;;5071515;28;20044;-70
2023/06/16 10:41:11;;;;;;;4.68;2.30;;;28.80;69.90;;;;;;5071772;28;20052;-71
2023/06/16 10:43:37;;;;;;;5.32;2.88;;;28.90;69.40;;;;;;5037631;28;20044;-69
2023/06/16 10:46:17;;;;;;;4.80;2.50;;;28.90;69.60;;;;;;5027613;28;20045;-71
2023/06/16 10:49:05;;;;;;;5.65;2.72;;;29.20;69.20;;;;;;5051818;28;20119;-69
2023/06/16 10:52:03;;;;;;;7.13;2.63;;;29.40;70.20;;;;;;5054615;28;20193;-69
2023/06/16 10:54:43;;;;;;;6.65;2.65;;;29.20;71.30;;;;;;4997368;28;20525;-69
2023/06/16 10:57:10;;;;;;;7.95;2.78;;;29.10;68.40;;;;;;5040139;28;20041;-69
2023/06/16 11:00:11;;;;;;;6.25;2.60;;;29.10;68.90;;;;;;5045544;28;20120;-70
2023/06/16 11:02:59;;;;;;;4.47;2.03;;;29.10;69.30;;;;;;5058307;28;20044;-69
2023/06/16 11:05:39;;;;;;;7.50;2.33;;;29.10;69.20;;;;;;5053237;28;20040;-71
2023/06/16 11:08:13;;;;;;;7.78;2.40;;;29.10;69.20;;;;;;5037647;28;20061;-77
2023/06/16 11:10:52;;;;;;;4.60;2.20;;;29.10;68.90;;;;;;5022630;28;20040;-70
2023/06/16 11:13:25;;;;;;;4.75;2.58;;;28.90;67.90;;;;;;5034398;28;20061;-68
2023/06/16 11:15:54;;;;;;;4.37;2.13;;;28.90;69.10;;;;;;5037120;28;20048;-71
2023/06/16 11:18:24;;;;;;;3.47;2.08;;;28.70;68.70;;;;;;5046047;28;20037;-70
2023/06/16 11:20:58;;;;;;;3.50;2.20;;;28.50;68.70;;;;;;5010954;28;20096;-71
2023/06/16 11:23:25;;;;;;;5.05;2.60;;;28.10;69.30;;;;;;5050007;28;20068;-72
2023/06/16 11:25:51;;;;;;;4.15;2.33;;;28.20;70.20;;;;;;5018233;28;20057;-72
2023/06/16 11:28:21;;;;;;;3.80;2.45;;;28.20;69.60;;;;;;5016392;28;20529;-70
2023/06/16 11:30:48;;;;;;;4.03;2.47;;;28.20;66.40;;;;;;4959760;28;70103;-72
2023/06/16 11:33:19;;;;;;;4.82;2.25;;;27.90;65.50;;;;;;5015532;28;20431;-71
2023/06/16 11:35:45;;;;;;;5.13;2.55;;;27.70;67.20;;;;;;5043849;28;20049;-71
2023/06/16 11:38:11;;;;;;;5.03;2.47;;;27.70;67.60;;;;;;5051010;28;20052;-75
2023/06/16 11:40:37;;;;;;;3.70;2.50;;;27.60;66.40;;;;;;5039376;28;20037;-71
2023/06/16 11:43:07;;;;;;;4.65;2.50;;;27.50;67.10;;;;;;5039405;28;20055;-72
2023/06/16 11:45:36;;;;;;;7.63;2.70;;;27.80;67.40;;;;;;5032431;28;20133;-72
2023/06/16 11:48:03;;;;;;;5.97;2.53;;;27.60;67.20;;;;;;5016926;28;20041;-71
2023/06/16 11:50:30;;;;;;;3.17;2.20;;;27.80;67.30;;;;;;5032289;28;20107;-71
2023/06/16 11:52:56;;;;;;;5.38;2.53;;;27.70;67.70;;;;;;5033576;28;20499;-71
2023/06/16 11:55:23;;;;;;;3.63;2.10;;;27.60;67.40;;;;;;5049072;28;20554;-70
2023/06/16 11:57:49;;;;;;;5.68;2.50;;;27.90;67.10;;;;;;5034621;28;20402;-71
2023/06/16 12:00:16;;;;;;;5.13;2.20;;;28.00;66.60;;;;;;5052661;28;20045;-76
2023/06/16 12:02:44;;;;;;;3.75;2.30;;;28.10;67.20;;;;;;5031023;28;20042;-72
2023/06/16 12:05:17;;;;;;;5.53;2.50;;;28.30;66.60;;;;;;5030616;28;20056;-71
2023/06/16 12:07:43;;;;;;;5.47;2.15;;;28.30;67.40;;;;;;5027813;28;20040;-71
2023/06/16 12:10:09;;;;;;;6.07;2.50;;;28.10;67.00;;;;;;5033420;28;20076;-72
2023/06/16 12:12:42;;;;;;;4.80;2.30;;;28.00;67.80;;;;;;5020220;28;20052;-71
2023/06/16 12:15:08;;;;;;;7.70;2.37;;;28.20;68.50;;;;;;5052857;28;20033;-71
2023/06/16 12:17:34;;;;;;;5.43;2.60;;;28.30;68.40;;;;;;5033762;28;20490;-71
2023/06/16 12:20:06;;;;;;;8.25;2.20;;;28.60;68.00;;;;;;5037193;28;20540;-70
2023/06/16 12:22:38;;;;;;;4.93;2.17;;;28.80;66.20;;;;;;5036068;28;20049;-70
2023/06/16 12:25:15;;;;;;;4.82;2.22;;;28.80;66.60;;;;;;5060967;28;20076;-69
2023/06/16 12:27:54;;;;;;;4.15;1.95;;;28.70;66.00;;;;;;5034929;28;20045;-70
2023/06/16 12:30:31;;;;;;;6.13;2.47;;;28.50;66.20;;;;;;5052740;28;20120;-72
2023/06/16 12:32:57;;;;;;;6.55;2.80;;;28.40;67.10;;;;;;5051771;28;20079;-70
2023/06/16 12:35:26;;;;;;;6.78;2.42;;;28.30;67.50;;;;;;5073283;28;20485;-70
2023/06/16 12:37:57;;;;;;;9.30;2.83;;;28.10;67.00;;;;;;5058882;28;20041;-69
2023/06/16 12:40:31;;;;;;;7.50;2.80;;;28.20;67.70;;;;;;5018988;28;20044;-69
2023/06/16 12:43:16;;;;;;;6.00;2.47;;;28.10;68.20;;;;;;5036505;28;20052;-69